createdAt,value
2019-06-20T00:02:17.260Z,9.80
2019-06-20T00:05:01.444Z,9.68
2019-06-20T00:07:40.065Z,8.05
2019-06-20T00:10:18.727Z,6.70
2019-06-20T00:13:00.541Z,9.70
2019-06-20T00:15:47.130Z,8.28
2019-06-20T00:18:26.371Z,8.40
2019-06-20T00:21:05.296Z,8.30
2019-06-20T00:23:43.670Z,7.92
2019-06-20T00:26:23.650Z,9.90
2019-06-20T00:29:02.363Z,9.08
2019-06-20T00:31:38.053Z,9.33
2019-06-20T00:34:16.483Z,9.35
2019-06-20T00:36:57.680Z,10.23
2019-06-20T00:39:36.375Z,6.87
2019-06-20T00:42:21.297Z,8.43
2019-06-20T00:45:02.501Z,9.30
2019-06-20T00:47:40.962Z,8.73
2019-06-20T00:50:20.001Z,8.80
2019-06-20T00:53:01.198Z,9.05
2019-06-20T00:55:39.791Z,7.55
2019-06-20T00:58:18.327Z,8.18
2019-06-20T01:00:59.294Z,8.88
2019-06-20T01:03:38.540Z,9.50
2019-06-20T01:06:16.846Z,13.15
2019-06-20T01:08:55.365Z,9.40
2019-06-20T01:11:34.234Z,7.85
2019-06-20T01:14:13.495Z,7.20
2019-06-20T01:16:54.428Z,6.50
2019-06-20T01:19:32.039Z,6.85
2019-06-20T01:22:08.067Z,8.00
2019-06-20T01:24:44.618Z,9.88
2019-06-20T01:27:24.853Z,8.00
2019-06-20T01:30:00.781Z,6.15
2019-06-20T01:32:37.010Z,8.63
2019-06-20T01:35:17.568Z,5.90
2019-06-20T01:37:53.897Z,7.20
2019-06-20T01:40:30.169Z,8.98
2019-06-20T01:43:06.075Z,6.67
2019-06-20T01:46:15.093Z,7.55
2019-06-20T01:48:49.958Z,8.50
2019-06-20T01:51:25.589Z,5.70
2019-06-20T01:54:01.358Z,5.67
2019-06-20T01:56:37.166Z,4.62
2019-06-20T01:59:13.998Z,9.60
2019-06-20T02:01:49.917Z,4.05
2019-06-20T02:04:28.571Z,5.65
2019-06-20T02:14:09.658Z,6.00
2019-06-20T02:16:49.696Z,7.45
2019-06-20T02:19:25.632Z,5.50
2019-06-20T02:22:01.441Z,4.78
2019-06-20T02:24:37.278Z,4.47
2019-06-20T02:27:15.008Z,7.00
2019-06-20T02:29:51.132Z,4.30
2019-06-20T02:32:27.152Z,4.05
2019-06-20T02:35:03.193Z,6.22
2019-06-20T02:37:39.728Z,5.35
2019-06-20T02:40:16.088Z,5.83
2019-06-20T02:42:51.963Z,5.92
2019-06-20T02:45:28.001Z,3.65
2019-06-20T02:48:04.581Z,7.62
2019-06-20T02:50:46.091Z,4.45
2019-06-20T02:53:22.031Z,6.45
2019-06-20T02:56:00.661Z,5.55
2019-06-20T02:58:39.130Z,5.72
2019-06-20T03:01:17.029Z,4.90
2019-06-20T03:03:59.062Z,4.00
2019-06-20T03:06:37.522Z,4.83
2019-06-20T03:09:18.144Z,5.05
2019-06-20T03:11:56.966Z,3.75
2019-06-20T03:14:45.320Z,5.42
2019-06-20T03:17:22.828Z,4.03
2019-06-20T03:20:01.964Z,2.87
2019-06-20T03:22:40.870Z,4.33
2019-06-20T03:25:24.381Z,4.60
2019-06-20T03:28:01.565Z,4.75
2019-06-20T03:30:38.316Z,6.42
2019-06-20T03:33:15.975Z,3.95
2019-06-20T03:35:54.384Z,4.55
2019-06-20T03:38:31.434Z,7.08
2019-06-20T03:41:11.588Z,6.35
2019-06-20T03:43:49.928Z,4.53
2019-06-20T03:46:28.345Z,4.87
2019-06-20T03:49:06.817Z,4.87
2019-06-20T03:51:45.970Z,6.45
2019-06-20T03:54:26.453Z,5.47
2019-06-20T03:57:02.362Z,7.83
2019-06-20T03:59:40.376Z,6.58
2019-06-20T04:02:18.726Z,5.10
2019-06-20T04:04:54.659Z,4.55
2019-06-20T04:07:30.341Z,3.80
2019-06-20T04:10:09.146Z,5.87
2019-06-20T04:12:47.310Z,6.37
2019-06-20T04:15:27.812Z,3.87
2019-06-20T04:18:03.721Z,4.55
2019-06-20T04:20:44.669Z,6.70
2019-06-20T04:23:21.914Z,3.95
2019-06-20T04:26:00.591Z,4.03
2019-06-20T04:28:41.003Z,2.77
2019-06-20T04:31:24.087Z,5.15
2019-06-20T04:34:04.695Z,3.70
2019-06-20T04:36:47.965Z,6.03
2019-06-20T04:39:25.200Z,4.65
2019-06-20T04:42:04.555Z,7.00
2019-06-20T04:44:43.732Z,5.78
2019-06-20T04:47:22.241Z,4.70
2019-06-20T04:50:09.009Z,3.52
2019-06-20T04:52:47.689Z,6.20
2019-06-20T04:55:26.886Z,5.58
2019-06-20T04:58:05.627Z,4.03
2019-06-20T05:00:56.734Z,4.97
2019-06-20T05:03:35.266Z,5.40
2019-06-20T05:06:14.699Z,7.50
2019-06-20T05:08:56.820Z,4.10
2019-06-20T05:11:37.268Z,5.72
2019-06-20T05:14:15.862Z,4.65
2019-06-20T05:16:56.654Z,4.50
2019-06-20T05:19:35.812Z,4.50
2019-06-20T05:22:16.652Z,4.10
2019-06-20T05:24:56.915Z,4.50
2019-06-20T05:27:36.203Z,7.85
2019-06-20T05:30:16.212Z,2.37
2019-06-20T05:32:59.001Z,3.17
2019-06-20T05:35:41.414Z,4.97
2019-06-20T05:38:23.642Z,4.60
2019-06-20T05:41:01.959Z,4.28
2019-06-20T05:43:43.630Z,4.20
2019-06-20T05:46:24.003Z,6.03
2019-06-20T05:49:01.403Z,7.17
2019-06-20T05:51:40.429Z,3.98
2019-06-20T05:54:19.492Z,4.75
2019-06-20T05:56:58.177Z,3.50
2019-06-20T05:59:36.645Z,3.12
2019-06-20T06:02:15.792Z,2.62
2019-06-20T06:04:58.488Z,5.28
2019-06-20T06:07:36.941Z,4.92
2019-06-20T06:10:20.477Z,3.70
2019-06-20T06:12:59.725Z,4.92
2019-06-20T06:15:38.427Z,5.80
2019-06-20T06:18:20.496Z,4.87
2019-06-20T06:20:59.303Z,4.10
2019-06-20T06:23:40.135Z,7.08
2019-06-20T06:26:18.809Z,6.35
2019-06-20T06:28:57.437Z,7.50
2019-06-20T06:31:37.599Z,6.90
2019-06-20T06:34:14.944Z,4.08
2019-06-20T06:36:53.299Z,4.08
2019-06-20T06:39:33.875Z,5.08
2019-06-20T06:42:14.784Z,6.85
2019-06-20T06:44:57.427Z,3.95
2019-06-20T06:47:38.274Z,6.12
2019-06-20T06:50:18.064Z,6.25
2019-06-20T06:52:57.015Z,6.00
2019-06-20T06:55:38.367Z,6.97
2019-06-20T06:58:18.475Z,7.78
2019-06-20T07:00:57.442Z,4.83
2019-06-20T07:03:38.769Z,6.22
2019-06-20T07:06:20.018Z,5.55
2019-06-20T07:09:00.233Z,5.55
2019-06-20T07:11:38.710Z,4.95
2019-06-20T07:14:18.964Z,6.33
2019-06-20T07:17:00.564Z,7.62
2019-06-20T07:19:40.099Z,6.25
2019-06-20T07:22:19.642Z,6.08
2019-06-20T07:24:58.512Z,6.12
2019-06-20T07:27:40.946Z,5.42
2019-06-20T07:30:21.108Z,6.40
2019-06-20T07:33:03.495Z,7.97
2019-06-20T07:35:42.102Z,7.22
2019-06-20T07:38:21.388Z,5.40
2019-06-20T07:41:01.686Z,4.30
2019-06-20T07:43:40.614Z,6.10
2019-06-20T07:46:19.201Z,5.17
2019-06-20T07:49:00.607Z,5.45
2019-06-20T07:51:41.271Z,8.73
2019-06-20T07:54:21.556Z,6.92
2019-06-20T07:57:02.430Z,6.10
2019-06-20T07:59:41.770Z,7.33
2019-06-20T08:02:22.742Z,8.13
2019-06-20T08:05:01.901Z,9.55
2019-06-20T08:07:40.665Z,9.80
2019-06-20T08:10:21.217Z,8.83
2019-06-20T08:13:02.356Z,8.88
2019-06-20T08:15:41.094Z,8.10
2019-06-20T08:18:19.693Z,9.28
2019-06-20T08:21:00.586Z,8.53
2019-06-20T08:23:40.024Z,9.28
2019-06-20T08:26:18.913Z,13.72
2019-06-20T08:29:10.235Z,10.23
2019-06-20T08:31:38.921Z,11.38
2019-06-20T08:34:18.146Z,9.23
2019-06-20T08:36:58.838Z,7.25
2019-06-20T08:39:38.135Z,10.48
2019-06-20T08:42:18.653Z,7.85
2019-06-20T08:44:59.477Z,8.75
2019-06-20T08:47:40.982Z,12.10
2019-06-20T08:50:19.901Z,10.35
2019-06-20T08:52:59.708Z,13.20
2019-06-20T08:55:39.393Z,12.37
2019-06-20T08:58:22.068Z,12.00
2019-06-20T09:03:45.009Z,9.08
2019-06-20T09:06:27.438Z,9.85
2019-06-20T09:09:12.219Z,10.53
2019-06-20T09:11:51.251Z,9.35
2019-06-20T09:14:31.357Z,14.47
2019-06-20T09:17:10.436Z,13.25
2019-06-20T09:19:49.627Z,10.58
2019-06-20T09:22:30.481Z,14.33
2019-06-20T09:25:09.362Z,16.05
2019-06-20T09:27:54.107Z,18.85
2019-06-20T09:30:34.241Z,19.95
2019-06-20T09:33:15.279Z,16.35
2019-06-20T09:35:55.471Z,17.65
2019-06-20T09:38:34.043Z,20.15
2019-06-20T09:41:15.525Z,23.10
2019-06-20T09:43:58.486Z,19.92
2019-06-20T09:46:37.731Z,16.73
2019-06-20T09:49:17.747Z,17.07
2019-06-20T09:51:56.953Z,15.93
2019-06-20T09:54:35.460Z,14.03
2019-06-20T09:57:14.073Z,16.67
2019-06-20T10:00:05.829Z,16.25
2019-06-20T10:02:40.638Z,15.43
2019-06-20T10:05:19.650Z,17.35
2019-06-20T10:07:58.561Z,18.77
2019-06-20T10:10:37.679Z,15.23
2019-06-20T10:13:16.356Z,13.95
2019-06-20T10:15:55.629Z,16.35
2019-06-20T10:18:35.654Z,14.68
2019-06-20T10:21:15.027Z,17.25
2019-06-20T10:23:54.517Z,19.75
2019-06-20T10:26:33.099Z,25.55
2019-06-20T10:29:13.794Z,27.93
2019-06-20T10:31:54.264Z,21.30
2019-06-20T10:34:33.955Z,20.02
2019-06-20T10:37:12.592Z,23.27
2019-06-20T10:39:51.996Z,19.48
2019-06-20T10:42:30.899Z,18.07
2019-06-20T10:45:10.422Z,14.35
2019-06-20T10:47:50.783Z,16.27
2019-06-20T10:50:29.359Z,15.68
2019-06-20T10:53:14.036Z,19.02
2019-06-20T10:55:52.658Z,14.98
2019-06-20T10:58:31.132Z,19.92
2019-06-20T11:01:14.428Z,16.52
2019-06-20T11:03:52.915Z,15.15
2019-06-20T11:06:32.096Z,18.20
2019-06-20T11:09:14.046Z,13.58
2019-06-20T11:11:53.357Z,14.18
2019-06-20T11:14:33.471Z,15.95
2019-06-20T11:17:12.158Z,18.92
2019-06-20T11:19:52.222Z,15.78
2019-06-20T11:22:33.064Z,14.43
2019-06-20T11:25:11.861Z,15.13
2019-06-20T11:27:53.770Z,16.15
2019-06-20T11:30:44.898Z,15.53
2019-06-20T11:33:12.423Z,18.20
2019-06-20T11:35:53.759Z,17.20
2019-06-20T11:38:33.858Z,18.10
2019-06-20T11:41:12.582Z,19.70
2019-06-20T11:43:55.685Z,16.45
2019-06-20T11:46:35.282Z,17.23
2019-06-20T11:49:14.561Z,15.72
2019-06-20T11:51:53.036Z,19.23
2019-06-20T11:54:31.880Z,20.45
2019-06-20T11:57:12.066Z,19.27
2019-06-20T11:59:50.725Z,17.00
2019-06-20T12:02:29.419Z,18.07
2019-06-20T12:05:08.585Z,19.98
2019-06-20T12:07:49.801Z,18.57
2019-06-20T12:10:29.439Z,13.18
2019-06-20T12:13:07.943Z,15.65
2019-06-20T12:15:50.251Z,17.57
2019-06-20T12:18:29.193Z,15.95
2019-06-20T12:21:07.827Z,12.80
2019-06-20T12:23:49.456Z,14.68
2019-06-20T12:26:33.328Z,12.90
2019-06-20T12:29:14.043Z,14.03
2019-06-20T12:31:52.860Z,12.68
2019-06-20T12:34:31.508Z,13.13
2019-06-20T12:37:10.047Z,12.60
2019-06-20T12:39:49.259Z,12.60
2019-06-20T12:42:29.509Z,10.03
2019-06-20T12:45:08.405Z,10.05
2019-06-20T12:47:48.378Z,10.95
2019-06-20T12:50:27.901Z,10.95
2019-06-20T12:53:06.569Z,12.13
2019-06-20T12:55:47.484Z,9.90
2019-06-20T12:58:26.107Z,13.03
2019-06-20T13:01:07.268Z,9.90
2019-06-20T13:03:48.083Z,7.87
2019-06-20T13:06:27.753Z,9.13
2019-06-20T13:09:07.057Z,9.50
2019-06-20T13:11:47.019Z,9.95
2019-06-20T13:14:27.195Z,10.78
2019-06-20T13:17:07.517Z,9.23
2019-06-20T13:19:46.495Z,9.73
2019-06-20T13:22:27.496Z,11.78
2019-06-20T13:25:06.477Z,12.82
2019-06-20T13:27:45.727Z,10.93
2019-06-20T13:30:25.247Z,10.43
2019-06-20T13:33:04.444Z,10.82
2019-06-20T13:35:43.782Z,10.72
2019-06-20T13:38:22.678Z,13.20
2019-06-20T13:41:04.993Z,12.60
2019-06-20T13:43:44.132Z,12.82
2019-06-20T13:46:22.869Z,13.15
2019-06-20T13:48:59.662Z,10.82
2019-06-20T13:51:39.965Z,12.55
2019-06-20T13:54:18.538Z,11.28
2019-06-20T13:56:58.325Z,10.53
2019-06-20T13:59:43.394Z,13.20
2019-06-20T14:02:23.610Z,10.03
2019-06-20T14:05:04.470Z,15.15
2019-06-20T14:07:47.054Z,13.28
2019-06-20T14:10:23.454Z,11.12
2019-06-20T14:13:02.050Z,8.13
2019-06-20T14:15:42.652Z,12.37
2019-06-20T14:18:21.035Z,11.30
2019-06-20T14:20:59.589Z,14.47
2019-06-20T14:23:41.036Z,10.50
2019-06-20T14:26:22.101Z,10.80
2019-06-20T14:29:01.244Z,9.23
2019-06-20T14:31:40.363Z,9.65
2019-06-20T14:34:19.970Z,9.13
2019-06-20T14:36:58.902Z,8.98
2019-06-20T14:39:38.804Z,7.70
2019-06-20T14:42:17.550Z,9.40
2019-06-20T14:44:56.179Z,8.45
2019-06-20T14:47:37.456Z,7.25
2019-06-20T14:50:16.435Z,8.28
2019-06-20T14:52:54.961Z,8.25
2019-06-20T14:55:34.018Z,9.30
2019-06-20T14:58:14.402Z,7.75
2019-06-20T15:00:55.018Z,7.62
2019-06-20T15:03:35.166Z,9.13
2019-06-20T15:06:15.171Z,9.98
2019-06-20T15:09:04.862Z,7.55
2019-06-20T15:11:37.895Z,7.53
2019-06-20T15:14:16.341Z,9.43
2019-06-20T15:16:55.379Z,7.20
2019-06-20T15:19:35.145Z,8.90
2019-06-20T15:22:13.952Z,7.35
2019-06-20T15:24:53.545Z,10.08
2019-06-20T15:27:32.236Z,9.98
2019-06-20T15:30:12.939Z,11.10
2019-06-20T15:33:04.084Z,6.22
2019-06-20T15:35:31.296Z,9.73
2019-06-20T15:38:12.955Z,8.33
2019-06-20T15:40:53.073Z,9.08
2019-06-20T15:43:31.882Z,7.08
2019-06-20T15:46:11.897Z,7.97
2019-06-20T15:48:50.643Z,8.88
2019-06-20T15:51:29.163Z,6.83
2019-06-20T15:54:08.220Z,8.00
2019-06-20T15:56:48.563Z,7.12
2019-06-20T15:59:30.252Z,7.75
2019-06-20T16:02:08.975Z,7.92
2019-06-20T16:04:48.436Z,6.58
2019-06-20T16:07:28.424Z,9.25
2019-06-20T16:10:07.509Z,5.10
2019-06-20T16:12:46.199Z,6.35
2019-06-20T16:15:32.729Z,5.78
2019-06-20T16:18:11.258Z,5.80
2019-06-20T16:20:50.134Z,5.65
2019-06-20T16:23:28.741Z,7.40
2019-06-20T16:26:08.032Z,5.12
2019-06-20T16:28:46.596Z,7.00
2019-06-20T16:31:27.134Z,6.85
2019-06-20T16:34:05.030Z,5.53
2019-06-20T16:36:44.512Z,6.67
2019-06-20T16:39:23.076Z,5.85
2019-06-20T16:42:01.739Z,4.67
2019-06-20T16:44:40.292Z,6.20
2019-06-20T16:47:19.507Z,5.17
2019-06-20T16:49:59.696Z,6.62
2019-06-20T16:52:40.404Z,6.85
2019-06-20T16:55:21.428Z,5.20
2019-06-20T16:58:00.558Z,5.45
2019-06-20T17:00:39.290Z,6.42
2019-06-20T17:03:17.911Z,5.17
2019-06-20T17:05:59.605Z,7.20
2019-06-20T17:08:38.414Z,6.12
2019-06-20T17:11:17.402Z,7.60
2019-06-20T17:13:57.984Z,4.62
2019-06-20T17:16:36.645Z,5.30
2019-06-20T17:19:15.743Z,3.90
2019-06-20T17:21:54.230Z,4.80
2019-06-20T17:24:33.161Z,6.08
2019-06-20T17:27:12.023Z,4.85
2019-06-20T17:29:52.569Z,5.45
2019-06-20T17:32:31.078Z,5.50
2019-06-20T17:35:11.449Z,4.65
2019-06-20T17:37:49.991Z,5.70
2019-06-20T17:40:29.387Z,6.92
2019-06-20T17:43:10.343Z,5.67
2019-06-20T17:45:48.986Z,5.20
2019-06-20T17:48:29.039Z,5.80
2019-06-20T17:51:08.577Z,4.42
2019-06-20T17:53:49.557Z,4.95
2019-06-20T17:56:26.637Z,5.10
2019-06-20T17:59:05.290Z,7.70
2019-06-20T18:01:44.493Z,7.53
2019-06-20T18:04:26.677Z,7.95
2019-06-20T18:07:03.623Z,6.10
2019-06-20T18:09:42.278Z,4.60
2019-06-20T18:12:20.915Z,5.92
2019-06-20T18:14:59.381Z,5.50
2019-06-20T18:17:38.831Z,5.28
2019-06-20T18:20:20.698Z,5.62
2019-06-20T18:22:59.317Z,7.08
2019-06-20T18:25:40.984Z,5.35
2019-06-20T18:28:20.104Z,5.97
2019-06-20T18:30:58.783Z,5.40
2019-06-20T18:33:37.387Z,6.97
2019-06-20T18:36:17.269Z,5.45
2019-06-20T18:38:56.663Z,6.55
2019-06-20T18:41:35.063Z,5.25
2019-06-20T18:44:13.669Z,6.80
2019-06-20T18:46:53.425Z,6.15
2019-06-20T18:49:34.518Z,5.55
2019-06-20T18:52:14.495Z,6.37
2019-06-20T18:54:53.063Z,4.70
2019-06-20T18:57:32.875Z,6.15
2019-06-20T19:00:13.685Z,5.30
2019-06-20T19:02:52.223Z,6.00
2019-06-20T19:05:30.998Z,4.97
2019-06-20T19:08:11.051Z,5.25
2019-06-20T19:10:49.821Z,5.17
2019-06-20T19:13:31.878Z,6.20
2019-06-20T19:16:10.693Z,5.55
2019-06-20T19:18:52.395Z,5.12
2019-06-20T19:21:31.291Z,4.90
2019-06-20T19:24:11.351Z,4.85
2019-06-20T19:26:50.916Z,5.22
2019-06-20T19:29:29.507Z,4.58
2019-06-20T19:32:08.202Z,5.10
2019-06-20T19:35:00.995Z,5.25
2019-06-20T19:37:27.118Z,4.53
2019-06-20T19:40:05.905Z,4.60
2019-06-20T19:42:46.198Z,6.12
2019-06-20T19:45:24.836Z,4.67
2019-06-20T19:48:05.793Z,5.60
2019-06-20T19:50:44.943Z,4.28
2019-06-20T19:53:23.674Z,5.80
2019-06-20T19:56:02.961Z,3.77
2019-06-20T19:58:41.537Z,4.47
2019-06-20T20:01:22.660Z,5.33
2019-06-20T20:04:03.163Z,4.30
2019-06-20T20:06:41.859Z,4.53
2019-06-20T20:09:22.496Z,5.60
2019-06-20T20:11:59.233Z,5.90
2019-06-20T20:14:38.757Z,5.20
2019-06-20T20:17:17.451Z,4.47
2019-06-20T20:19:56.207Z,6.03
2019-06-20T20:22:34.775Z,4.40
2019-06-20T20:25:16.151Z,6.20
2019-06-20T20:27:54.526Z,4.85
2019-06-20T20:30:34.861Z,4.10
2019-06-20T20:33:16.753Z,5.40
2019-06-20T20:35:56.078Z,4.53
2019-06-20T20:38:34.473Z,4.30
2019-06-20T20:41:13.138Z,3.83
2019-06-20T20:43:51.712Z,4.20
2019-06-20T20:46:33.418Z,5.20
2019-06-20T20:49:13.960Z,4.70
2019-06-20T20:51:54.543Z,4.17
2019-06-20T20:54:33.090Z,4.05
2019-06-20T20:57:14.006Z,4.92
2019-06-20T20:59:52.498Z,4.67
2019-06-20T21:02:33.021Z,4.60
2019-06-20T21:05:13.506Z,4.75
2019-06-20T21:07:52.265Z,5.95
2019-06-20T21:10:30.945Z,4.65
2019-06-20T21:13:10.089Z,5.15
2019-06-20T21:15:48.706Z,7.03
2019-06-20T21:18:24.933Z,6.28
2019-06-20T21:21:03.103Z,4.95
2019-06-20T21:23:43.624Z,6.85
2019-06-20T21:26:21.947Z,6.37
2019-06-20T21:29:00.482Z,5.80
2019-06-20T21:31:39.317Z,7.40
2019-06-20T21:34:19.278Z,5.00
2019-06-20T21:37:00.805Z,4.92
2019-06-20T21:39:39.629Z,5.65
2019-06-20T21:42:18.092Z,5.25
2019-06-20T21:44:59.999Z,5.53
2019-06-20T21:47:40.245Z,6.90
2019-06-20T21:50:20.358Z,6.12
2019-06-20T21:52:59.107Z,5.17
2019-06-20T21:55:38.862Z,5.67
2019-06-20T21:58:20.124Z,5.40
2019-06-20T22:01:01.797Z,6.75
2019-06-20T22:03:40.339Z,4.55
2019-06-20T22:06:23.976Z,5.92
2019-06-20T22:09:01.000Z,6.42
2019-06-20T22:11:41.022Z,6.53
2019-06-20T22:14:19.768Z,7.12
2019-06-20T22:16:57.561Z,7.37
2019-06-20T22:19:36.668Z,5.12
2019-06-20T22:22:15.103Z,7.03
2019-06-20T22:24:53.644Z,5.35
2019-06-20T22:27:33.567Z,6.50
2019-06-20T22:30:14.155Z,6.87
2019-06-20T22:32:53.280Z,5.40
2019-06-20T22:35:32.366Z,6.28
2019-06-20T22:38:12.582Z,7.00
2019-06-20T22:40:52.254Z,6.17
2019-06-20T22:43:30.990Z,6.12
2019-06-20T22:46:09.434Z,6.85
2019-06-20T22:48:48.128Z,6.03
2019-06-20T22:51:28.685Z,6.83
2019-06-20T22:54:07.289Z,6.00
2019-06-20T22:56:45.941Z,6.12
2019-06-20T22:59:26.968Z,6.83
2019-06-20T23:02:06.344Z,5.03
2019-06-20T23:04:47.604Z,6.12
2019-06-20T23:07:25.960Z,6.28
2019-06-20T23:10:10.290Z,6.95
2019-06-20T23:12:44.904Z,5.80
2019-06-20T23:15:23.775Z,5.35
2019-06-20T23:18:03.496Z,6.12
2019-06-20T23:21:00.417Z,5.80
2019-06-20T23:23:24.982Z,6.87
2019-06-20T23:26:04.753Z,8.70
2019-06-20T23:28:43.081Z,8.25
2019-06-20T23:31:21.877Z,6.42
2019-06-20T23:34:00.932Z,5.45
2019-06-20T23:36:41.307Z,7.87
2019-06-20T23:39:21.863Z,5.40
2019-06-20T23:42:00.168Z,6.33
2019-06-20T23:44:41.166Z,6.60
2019-06-20T23:47:21.682Z,7.62
2019-06-20T23:50:00.161Z,7.42
2019-06-20T23:52:41.808Z,5.50
2019-06-20T23:55:21.088Z,8.93
2019-06-20T23:58:01.200Z,4.80
